• Join FlightAware (Why Join?)
  • Login
  • US Flag 
10:10AM EDT


 

Airport Tracker/Info


-or-


 

Live Flight TrackerFlight Track Log ✈ N31532 ✈ 16-Jun-2013 ✈ 0J8 - KDZJ

Flight Track Log - Related Links

Times and Time Zones

All times are in EDT time to prevent confusion due to time zone crossing. See the N31532 flight status page for this flight to view local times or setup timezone preferences in your user account.

Time Position Orientation Groundspeed Altitude Reporting Facility
EDT Latitude Longitude Course Direction KTS MPH feet Rate Location/Type
10:17AM 29.9128 -82.4492 North 120 138 3,500  Level Jacksonville Center
10:18AM 29.9464 -82.4517 356° North 120 138 3,400 -60 Descending Jacksonville Center
10:19AM 29.9797 -82.4539 357° North 120 138 3,400  Level Jacksonville Center
10:20AM 30.0089 -82.4583 352° North 120 138 3,500  Climbing Jacksonville Center
10:21AM 30.0403 -82.4583 360° North 120 138 3,500  Level Jacksonville Center
10:22AM 30.0758 -82.4581 360° North 120 138 3,600 -60 Climbing Jacksonville Center
10:23AM 29.8999 -82.4895 North  Level Estimated
10:23AM 30.1072 -82.4556 North 120 138 3,400  Level Jacksonville Center
10:24AM 30.1425 -82.4603 353° North 125 144 3,300 -120 Descending Jacksonville Center
10:25AM 30.1761 -82.4625 357° North 120 138 3,200 -60 Descending Jacksonville Center
10:26AM 30.2094 -82.4694 350° North 120 138 3,200  Level Jacksonville Center
10:27AM 30.2428 -82.4789 346° North 120 138 3,200  Level Jacksonville Center
10:28AM 30.2722 -82.4861 348° North 125 144 3,200  Level Jacksonville Center
10:29AM 30.3056 -82.4931 350° North 125 144 3,200  Level Jacksonville Center
10:30AM 30.3389 -82.4931 360° North 125 144 3,300  Climbing Jacksonville Center
10:31AM 30.3725 -82.4928 360° North 125 144 3,200 -60 Descending Jacksonville Center
10:32AM 30.4036 -82.5025 345° North 120 138 3,200  Level Jacksonville Center
10:33AM 30.4350 -82.5094 349° North 120 138 3,300  Climbing Jacksonville Center
10:34AM 30.4664 -82.5142 353° North 120 138 3,300  Level Jacksonville Center
10:35AM 30.4978 -82.5261 342° North 120 138 3,300  Level Jacksonville Center
10:36AM 30.5208 -82.5381 336° Northwest 120 138 3,400  Climbing Jacksonville Center
10:37AM 30.5583 -82.5453 351° North 120 138 3,400  Level Jacksonville Center
10:38AM 30.5897 -82.5500 353° North 114 131 3,400  Level Jacksonville Center
10:39AM 30.6231 -82.5569 350° North 114 131 3,400  Level Jacksonville Center
10:40AM 30.6564 -82.5594 356° North 114 131 3,400  Level Jacksonville Center
10:41AM 30.6900 -82.5544 North 114 131 3,400  Level Jacksonville Center
10:42AM 30.7211 -82.5592 353° North 114 131 3,400  Level Jacksonville Center
10:43AM 30.7547 -82.5661 350° North 119 137 3,400  Level Jacksonville Center
10:44AM 30.7861 -82.5614 North 119 137 3,400  Level Jacksonville Center
10:45AM 30.8194 -82.5514 14° North 119 137 3,400  Level Jacksonville Center
10:46AM 30.8508 -82.5539 356° North 119 137 3,400  Level Jacksonville Center
10:47AM 30.8842 -82.5658 343° North 119 137 3,500  Climbing Jacksonville Center
10:48AM 30.9175 -82.5753 346° North 124 143 3,500 -60 Level Jacksonville Center
10:49AM 30.9508 -82.5703 North 124 143 3,400 -120 Descending Jacksonville Center
10:50AM 30.9864 -82.5703 360° North 124 143 3,300 -120 Descending Jacksonville Center
10:51AM 31.0178 -82.5678 North 124 143 3,200 -60 Descending Jacksonville Center
10:52AM 31.0533 -82.5678 360° North 124 143 3,200  Level Jacksonville Center
10:53AM 31.0844 -82.5628 North 124 143 3,200  Level Jacksonville Center
10:54AM 31.1200 -82.5600 North 124 143 3,300  Climbing Jacksonville Center
10:55AM 31.1533 -82.5550 North 124 143 3,300  Level Jacksonville Center
10:56AM 31.1847 -82.5575 356° North 124 143 3,300  Level Jacksonville Center
10:57AM 31.2181 -82.5622 353° North 124 143 3,300  Level Jacksonville Center
10:58AM 31.2536 -82.5597 North 124 143 3,300  Level Jacksonville Center
10:59AM 31.2831 -82.5619 356° North 124 143 3,400 120 Climbing Jacksonville Center
11:00AM 31.3122 -82.5814 330° Northwest 119 137 3,600 240 Climbing Jacksonville Center
11:01AM 31.3372 -82.6031 323° Northwest 114 131 3,900 300 Climbing Jacksonville Center
11:02AM 31.3728 -82.6103 350° North 114 131 4,300 300 Climbing Jacksonville Center
11:03AM 31.4019 -82.6175 348° North 109 125 4,600 300 Climbing Jacksonville Center
11:04AM 31.4314 -82.6222 352° North 109 125 4,900 240 Climbing Jacksonville Center
11:05AM 31.4586 -82.6392 332° Northwest 109 125 5,100 240 Climbing Jacksonville Center
11:06AM 31.4836 -82.6586 326° Northwest 109 125 5,400 300 Climbing Jacksonville Center
11:07AM 31.5108 -82.6733 335° Northwest 109 125 5,700 300 Climbing Jacksonville Center
11:08AM 31.5400 -82.6756 356° North 104 120 6,000 240 Climbing Jacksonville Center
11:09AM 31.5692 -82.6781 356° North 104 120 6,200 60 Climbing Jacksonville Center
11:10AM 31.5983 -82.6900 341° North 104 120 6,200  Level Jacksonville Center
11:11AM 31.6256 -82.7097 328° Northwest 110 127 6,300  Climbing Jacksonville Center
11:12AM 31.6528 -82.7217 340° North 110 127 6,300  Level Jacksonville Center
11:13AM 31.6800 -82.7436 326° Northwest 110 127 6,300  Level Jacksonville Center
11:14AM 31.7092 -82.7508 348° North 110 127 6,300  Level Jacksonville Center
11:15AM 31.7383 -82.7533 356° North 110 127 6,300  Level Jacksonville Center
11:16AM 31.7678 -82.7656 341° North 105 121 6,300  Level Jacksonville Center
11:17AM 31.7947 -82.7850 328° Northwest 111 128 6,300  Level Jacksonville Center
11:18AM 31.8136 -82.8094 312° West 111 128 6,300  Level Jacksonville Center
11:19AM 31.8428 -82.8167 348° North 105 121 6,300  Level Jacksonville Center
11:20AM 31.8742 -82.8192 356° North 100 115 6,300  Level Jacksonville Center
11:21AM 31.9056 -82.8239 353° North 106 122 6,300 -60 Level Jacksonville Center
11:22AM 31.9328 -82.8436 328° Northwest 106 122 6,200 -60 Descending Jacksonville Center
11:23AM 31.9597 -82.8633 328° Northwest 111 128 6,200  Level Jacksonville Center
11:24AM 31.9892 -82.8756 341° North 111 128 6,200 -60 Level Jacksonville Center
11:25AM 32.0203 -82.8828 349° North 111 128 6,100 -60 Descending Jacksonville Center
11:26AM 32.0517 -82.8878 352° North 111 128 6,100  Level Jacksonville Center
11:27AM 32.0831 -82.8925 353° North 106 122 6,200  Climbing Jacksonville Center
11:28AM 32.1122 -82.9000 348° North 106 122 6,200 -60 Level Jacksonville Center
11:29AM 32.1436 -82.9172 335° Northwest 106 122 6,100 -60 Descending Jacksonville Center
11:30AM 32.1708 -82.9269 343° North 111 128 6,100  Level Jacksonville Center
11:32AM 32.2333 -82.9500 343° North 114 131 6,100  Level Atlanta TRACON
11:33AM 32.2500 -82.9667 320° Northwest 111 128 6,100  Level Atlanta TRACON
11:34AM 32.2833 -82.9833 337° Northwest 110 127 6,200 60 Climbing Atlanta TRACON
11:35AM 32.3000 -83.0000 320° Northwest 108 124 6,300 60 Climbing Atlanta TRACON
11:36AM 32.3333 -83.0000 360° North 106 122 6,400  Climbing Atlanta TRACON
11:37AM 32.3667 -83.0000 360° North 107 123 6,400  Level Atlanta TRACON
11:38AM 32.3833 -83.0167 320° Northwest 104 120 6,400  Level Atlanta TRACON
11:39AM 32.4167 -83.0333 337° Northwest 108 124 6,400 -60 Level Atlanta TRACON
11:40AM 32.4500 -83.0333 360° North 108 124 6,300 -60 Descending Atlanta TRACON
11:41AM 32.4833 -83.0333 360° North 108 124 6,300  Level Atlanta TRACON
11:42AM 32.5000 -83.0500 320° Northwest 105 121 6,300  Level Atlanta TRACON
11:43AM 32.5333 -83.0500 360° North 107 123 6,300  Level Atlanta TRACON
11:44AM 32.5500 -83.0667 320° Northwest 107 123 6,300  Level Atlanta TRACON
11:45AM 32.5833 -83.0833 337° Northwest 106 122 6,300  Level Atlanta TRACON
11:46AM 32.6167 -83.1000 337° Northwest 104 120 6,300 -60 Level Atlanta TRACON
11:47AM 32.6500 -83.1000 360° North 106 122 6,200 -60 Descending Atlanta TRACON
11:48AM 32.6667 -83.1167 320° Northwest 107 123 6,200  Level Atlanta TRACON
11:49AM 32.7000 -83.1333 337° Northwest 106 122 6,200  Level Atlanta TRACON
11:50AM 32.7167 -83.1333 360° North 107 123 6,200 -60 Level Atlanta TRACON
11:51AM 32.7500 -83.1333 360° North 106 122 6,100 -60 Descending Atlanta TRACON
11:52AM 32.7833 -83.1500 337° Northwest 107 123 6,100  Level Atlanta TRACON
11:53AM 32.8000 -83.1667 320° Northwest 105 121 6,200  Climbing Atlanta TRACON
11:54AM 32.8333 -83.1667 360° North 108 124 6,200  Level Atlanta TRACON
11:55AM 32.8667 -83.1833 337° Northwest 106 122 6,200  Level Atlanta TRACON
11:56AM 32.8833 -83.2000 320° Northwest 106 122 6,200  Level Atlanta TRACON
11:57AM 32.9167 -83.2167 337° Northwest 105 121 6,300  Climbing Atlanta TRACON
11:58AM 32.9333 -83.2333 320° Northwest 105 121 6,300  Level Atlanta TRACON
11:59AM 32.9667 -83.2500 337° Northwest 104 120 6,300  Level Atlanta TRACON
12:00PM 33.0000 -83.2500 360° North 107 123 6,300  Level Atlanta TRACON
12:01PM 33.0167 -83.2667 320° Northwest 105 121 6,300  Level Atlanta TRACON
12:02PM 33.0500 -83.2833 337° Northwest 107 123 6,300  Level Atlanta TRACON
12:03PM 33.0833 -83.2833 360° North 107 123 6,400  Climbing Atlanta TRACON
12:04PM 33.1000 -83.3167 301° West 104 120 6,400  Level Atlanta TRACON
12:05PM 33.1167 -83.3333 320° Northwest 107 123 6,400 -60 Level Atlanta TRACON
12:06PM 33.1500 -83.3500 337° Northwest 110 127 6,300 -60 Descending Atlanta TRACON
12:07PM 33.1833 -83.3500 360° North 111 128 6,300  Level Atlanta TRACON
12:08PM 33.2000 -83.3667 320° Northwest 112 129 6,300  Level Atlanta TRACON
12:09PM 33.2333 -83.4000 320° Northwest 115 132 6,400  Climbing Atlanta TRACON
12:10PM 33.2667 -83.4000 360° North 109 125 6,400  Level Atlanta TRACON
12:11PM 33.3000 -83.4167 337° Northwest 110 127 6,400  Level Atlanta TRACON
12:12PM 33.3167 -83.4167 360° North 112 129 6,400  Level Atlanta TRACON
12:13PM 33.3500 -83.4333 337° Northwest 110 127 6,400 -60 Level Atlanta TRACON
12:14PM 33.3833 -83.4500 337° Northwest 113 130 6,300 -60 Descending Atlanta TRACON
12:16PM 33.4333 -83.4667 344° North 112 129 6,300  Level Atlanta TRACON
12:18PM 33.5000 -83.4833 348° North 112 129 6,300  Level Atlanta TRACON
12:19PM 33.5333 -83.4833 360° North 113 130 6,300  Level Atlanta TRACON
12:20PM 33.5500 -83.5000 320° Northwest 115 132 6,400  Climbing Atlanta TRACON
12:21PM 33.5833 -83.5000 360° North 112 129 6,400  Level Atlanta TRACON
12:22PM 33.6167 -83.5000 360° North 110 127 6,500  Climbing Atlanta TRACON
12:23PM 33.6500 -83.5167 337° Northwest 107 123 6,500 -60 Level Atlanta TRACON
12:24PM 33.6833 -83.5333 337° Northwest 113 130 6,400 -60 Descending Atlanta TRACON
12:25PM 33.7000 -83.5333 360° North 113 130 6,400  Level Atlanta TRACON
12:26PM 33.7333 -83.5500 337° Northwest 112 129 6,400  Level Atlanta TRACON
12:27PM 33.7667 -83.5500 360° North 111 128 6,500  Climbing Atlanta TRACON
12:28PM 33.8000 -83.5667 337° Northwest 107 123 6,500  Level Atlanta TRACON
12:29PM 33.8167 -83.5667 360° North 106 122 6,600 240 Climbing Atlanta TRACON
12:30PM 33.8500 -83.5833 337° Northwest 97 112 7,000 300 Climbing Atlanta TRACON
12:31PM 33.8667 -83.6000 320° Northwest 99 114 7,300 300 Climbing Atlanta TRACON
12:32PM 33.9000 -83.6333 320° Northwest 102 117 7,600 240 Climbing Atlanta TRACON
12:33PM 33.9167 -83.6333 360° North 105 121 7,800 300 Climbing Atlanta TRACON
12:34PM 33.9500 -83.6500 337° Northwest 109 125 8,200 180 Climbing Atlanta TRACON
12:35PM 33.9833 -83.6667 337° Northwest 117 135 8,200  Level Atlanta TRACON
12:36PM 34.0025 -83.6781 334° Northwest 122 140 8,300  Climbing Atlanta Center
12:37PM 34.0317 -83.6903 341° North 123 142 8,300 -60 Level Atlanta Center
12:38PM 34.0631 -83.7053 338° Northwest 123 142 8,200  Descending Atlanta Center
12:39PM 34.0944 -83.7228 335° Northwest 123 142 8,300 -60 Climbing Atlanta Center
12:40PM 34.1236 -83.7353 340° North 118 136 8,100 -180 Descending Atlanta Center
12:41PM 34.1569 -83.7425 350° North 118 136 8,000  Descending Atlanta Center
12:42PM 34.1883 -83.7525 345° North 112 129 8,100 120 Climbing Atlanta Center
12:43PM 34.2156 -83.7650 339° North 106 122 8,300 120 Climbing Atlanta Center
12:44PM 34.2447 -83.7825 334° Northwest 106 122 8,400 120 Climbing Atlanta Center
12:45PM 34.2719 -83.7925 343° North 113 130 8,600 120 Climbing Atlanta Center
12:46PM 34.3033 -83.7947 357° North 108 124 8,700  Climbing Atlanta Center
12:47PM 34.3367 -83.8022 349° North 108 124 8,600 -420 Descending Atlanta Center
12:48PM 34.3556 -83.8350 305° West 108 124 7,900 -900 Descending Atlanta Center
12:49PM 34.3597 -83.8678 279° West 113 130 6,800 -960 Descending Atlanta Center
12:50PM 34.3492 -83.8525 130° Southeast 49 56 6,000 -960 Descending Atlanta Center
12:51PM 34.3744 -83.8728 326° Northwest 51 59 4,900 -1,080 Descending Atlanta Center
12:52PM 34.4056 -83.8803 349° North 110 127 3,900 -660 Descending Atlanta Center
12:53PM 34.4369 -83.8978 335° Northwest 120 138 3,600 -360 Descending Atlanta Center
12:54PM 34.4642 -83.9128 336° Northwest 115 132 3,200 -240 Descending Atlanta Center
12:55PM 34.4933 -83.9228 344° North 109 125 3,200 60 Level Atlanta Center
12:56PM 34.5206 -83.9406 332° Northwest 109 125 3,400 300 Climbing Atlanta Center
12:57PM 34.5436 -83.9631 321° Northwest 109 125 3,800 240 Climbing Atlanta Center
12:58PM 34.5686 -83.9883 320° Northwest 109 125 3,900 60 Climbing Atlanta Center
12:59PM 34.5997 -83.9858 North 109 125 4,000 120 Climbing Atlanta Center
01:00PM 34.6311 -83.9833 North 109 125 4,200 120 Climbing Atlanta Center
01:01PM 34.6603 -83.9833 360° North 114 131 4,300  Climbing Atlanta Center
01:02PM 34.7000 -83.9831 360° North 119 137 4,200  Descending Atlanta Center
01:03PM 34.7333 -83.9831 360° North 124 143 4,400 60 Climbing Atlanta Center
01:04PM 34.7689 -83.9806 North 119 137 4,400  Level Atlanta Center